Pagrindinis puslapis
METAR-TAF:

METAR-TAF

Oro uostai :

DeLand, Florida, Jungtinės Amerikos Valstijos

platuma: 29-04-01N, ilguma: 081-17-02W, Aukštis: 24 m

Dabartinis oras

Ataskaita buvo paskelbta 11 minutes, ne 18:15 UTC
Vėjas 9 kt iš Vakarų/Šiaurės Vakarų
Temperatūra 26°C
Drėgmė 58%
Slėgis 1013 hPa
Matomumas: 16.1 km
Giedras dangus

METAR: KDED 171815Z AUTO 30009KT 10SM CLR 26/17 A2991 RMK AO2

Laikas: 14:26 (18:26 UTC)


TAF: trūkstamas

Orai ataskaitas ir orų prognozės (METAR, TAF).

turimą stotys yra geltonos ir raudonos taškus žemėlapyje.

Perkelti pele per norėdami pamatyti stoties vardą.

Tada spustelėkite, norėdami matyti oro stebėjimo ir prognozės.

Norėdami pakeisti žemėlapį: spustelėkite ant žalios mygtukų su juodo kryžiaus žemyn,; žalią mygtuką su brūkšneliu, jei norite nutolinti; arba žalių rodyklių gretimoms žemėlapius.


METAR-TAF: